createdAt,value
2019-04-21T00:01:12.483Z,4.74
2019-04-21T00:03:48.558Z,4.65
2019-04-21T00:06:36.997Z,4.46
2019-04-21T00:09:12.859Z,4.44
2019-04-21T00:11:39.096Z,4.43
2019-04-21T00:14:03.726Z,4.37
2019-04-21T00:16:32.212Z,4.39
2019-04-21T00:19:03.434Z,4.31
2019-04-21T00:21:37.769Z,4.37
2019-04-21T00:24:23.679Z,4.26
2019-04-21T00:27:18.575Z,4.13
2019-04-21T00:29:40.999Z,4.12
2019-04-21T00:32:03.443Z,4.11
2019-04-21T00:34:19.636Z,4.13
2019-04-21T00:37:04.360Z,3.93
2019-04-21T00:39:49.094Z,3.91
2019-04-21T00:42:16.873Z,3.90
2019-04-21T00:44:36.771Z,3.78
2019-04-21T00:47:14.090Z,3.77
2019-04-21T00:49:53.505Z,3.85
2019-04-21T00:57:53.187Z,3.66
2019-04-21T01:00:18.750Z,3.44
2019-04-21T01:02:59.392Z,3.41
2019-04-21T01:05:21.486Z,3.45
2019-04-21T01:07:56.225Z,3.44
2019-04-21T01:10:19.823Z,3.41
2019-04-21T01:12:56.310Z,3.33
2019-04-21T01:17:59.345Z,3.30
2019-04-21T01:20:17.261Z,3.34
2019-04-21T01:22:43.068Z,3.29
2019-04-21T01:25:24.124Z,3.09
2019-04-21T01:27:58.771Z,3.09
2019-04-21T01:30:41.062Z,3.01
2019-04-21T01:33:12.407Z,3.01
2019-04-21T01:35:45.383Z,3.04
2019-04-21T01:38:14.219Z,2.93
2019-04-21T01:40:48.683Z,2.88
2019-04-21T01:43:16.578Z,3.05
2019-04-21T01:45:51.964Z,3.02
2019-04-21T01:48:21.638Z,3.07
2019-04-21T01:50:51.169Z,2.95
2019-04-21T01:53:34.780Z,2.93
2019-04-21T01:56:03.377Z,2.92
2019-04-21T01:58:25.692Z,2.91
2019-04-21T02:01:00.853Z,2.76
2019-04-21T02:08:44.817Z,2.68
2019-04-21T02:11:21.800Z,2.61
2019-04-21T02:13:53.350Z,2.63
2019-04-21T02:16:18.547Z,2.59
2019-04-21T02:18:52.954Z,2.51
2019-04-21T02:21:18.150Z,2.67
2019-04-21T02:24:01.778Z,2.61
2019-04-21T02:26:28.053Z,2.69
2019-04-21T02:29:02.023Z,2.67
2019-04-21T02:34:27.577Z,2.64
2019-04-21T02:36:57.979Z,2.59
2019-04-21T02:41:51.809Z,2.57
2019-04-21T02:44:23.363Z,2.49
2019-04-21T02:46:46.362Z,2.32
2019-04-21T02:52:01.717Z,2.28
2019-04-21T02:57:07.034Z,2.33
2019-04-21T02:59:33.936Z,2.30
2019-04-21T03:02:31.390Z,2.20
2019-04-21T03:04:53.129Z,2.25
2019-04-21T03:07:34.714Z,2.18
2019-04-21T03:09:57.886Z,2.29
2019-04-21T03:12:28.662Z,2.29
2019-04-21T03:17:43.610Z,2.07
2019-04-21T03:22:42.696Z,2.03
2019-04-21T03:25:26.881Z,2.11
2019-04-21T03:30:33.375Z,2.08
2019-04-21T03:33:23.997Z,2.00
2019-04-21T03:36:04.851Z,2.00
2019-04-21T03:38:00.236Z,1.93
2019-04-21T03:40:19.675Z,1.94
2019-04-21T03:42:58.601Z,1.82
2019-04-21T03:45:32.642Z,1.87
2019-04-21T03:48:01.497Z,1.80
2019-04-21T03:53:03.518Z,1.91
2019-04-21T03:58:19.666Z,1.91
2019-04-21T04:01:05.894Z,1.94
2019-04-21T04:11:31.667Z,1.94
2019-04-21T04:13:55.994Z,1.89
2019-04-21T04:16:20.204Z,1.98
2019-04-21T04:24:05.009Z,2.03
2019-04-21T04:26:32.361Z,1.87
2019-04-21T04:31:37.565Z,1.93
2019-04-21T04:39:28.075Z,2.00
2019-04-21T04:47:10.232Z,2.10
2019-04-21T04:49:46.785Z,2.12
2019-04-21T04:57:13.842Z,2.41
2019-04-21T04:59:47.756Z,2.38
2019-04-21T05:04:58.690Z,2.57
2019-04-21T05:07:27.278Z,2.52
2019-04-21T05:09:55.531Z,2.62
2019-04-21T05:12:26.761Z,2.70
2019-04-21T05:14:53.318Z,2.85
2019-04-21T05:22:33.502Z,3.03
2019-04-21T05:24:55.249Z,3.16
2019-04-21T05:27:38.655Z,3.32
2019-04-21T05:30:22.156Z,3.41
2019-04-21T05:32:58.297Z,3.49
2019-04-21T05:35:39.198Z,3.66
2019-04-21T05:38:10.428Z,3.74
2019-04-21T05:40:39.873Z,3.85
2019-04-21T05:43:25.970Z,3.95
2019-04-21T05:45:52.008Z,4.00
2019-04-21T05:48:35.337Z,4.10
2019-04-21T05:51:03.655Z,4.12
2019-04-21T05:53:39.422Z,4.17
2019-04-21T05:56:12.490Z,4.33
2019-04-21T05:58:43.640Z,4.49
2019-04-21T06:01:37.697Z,4.63
2019-04-21T06:04:17.138Z,4.75
2019-04-21T06:06:40.889Z,4.84
2019-04-21T06:09:15.776Z,4.99
2019-04-21T06:11:45.897Z,5.10
2019-04-21T06:14:14.489Z,5.14
2019-04-21T06:16:48.268Z,5.17
2019-04-21T06:19:26.607Z,5.34
2019-04-21T06:21:51.321Z,5.55
2019-04-21T06:24:21.868Z,5.80
2019-04-21T06:29:31.510Z,5.95
2019-04-21T06:34:43.824Z,6.20
2019-04-21T06:37:30.467Z,6.34
2019-04-21T06:42:21.227Z,6.53
2019-04-21T06:44:50.737Z,6.67
2019-04-21T06:47:15.513Z,6.70
2019-04-21T06:49:42.803Z,6.68
2019-04-21T06:52:31.808Z,6.89
2019-04-21T06:54:51.104Z,7.06
2019-04-21T06:57:23.129Z,7.26
2019-04-21T06:59:54.218Z,7.40
2019-04-21T07:02:36.481Z,7.52
2019-04-21T07:04:54.366Z,7.57
2019-04-21T07:07:26.247Z,7.93
2019-04-21T07:10:01.425Z,14.50
2019-04-21T07:12:32.176Z,10.70
2019-04-21T07:15:21.851Z,8.94
2019-04-21T07:17:35.831Z,8.51
2019-04-21T07:20:07.233Z,8.57
2019-04-21T07:22:36.885Z,8.66
2019-04-21T07:25:10.768Z,8.79
2019-04-21T07:27:41.529Z,9.00
2019-04-21T07:30:14.974Z,8.94
2019-04-21T07:32:47.461Z,9.06
2019-04-21T07:35:19.566Z,9.45
2019-04-21T07:37:48.142Z,9.62
2019-04-21T07:40:14.912Z,9.87
2019-04-21T07:42:46.679Z,10.16
2019-04-21T07:45:17.945Z,10.44
2019-04-21T07:48:16.097Z,10.33
2019-04-21T07:50:38.577Z,10.38
2019-04-21T07:53:21.266Z,10.43
2019-04-21T07:58:14.911Z,10.66
2019-04-21T08:00:52.975Z,10.76
2019-04-21T08:03:21.960Z,10.75
2019-04-21T08:05:59.184Z,10.87
2019-04-21T08:08:26.848Z,10.93
2019-04-21T08:10:56.738Z,11.13
2019-04-21T08:13:41.537Z,11.01
2019-04-21T08:16:07.701Z,11.29
2019-04-21T08:21:07.194Z,11.75
2019-04-21T08:23:36.801Z,11.80
2019-04-21T08:26:09.205Z,12.01
2019-04-21T08:28:47.396Z,12.19
2019-04-21T08:31:16.869Z,11.95
2019-04-21T08:36:25.029Z,12.09
2019-04-21T08:38:53.663Z,12.20
2019-04-21T08:41:23.061Z,12.36
2019-04-21T08:43:51.919Z,12.38
2019-04-21T08:46:31.556Z,12.73
2019-04-21T08:49:04.052Z,12.66
2019-04-21T08:51:33.980Z,12.48
2019-04-21T08:54:16.107Z,12.57
2019-04-21T08:56:46.721Z,12.52
2019-04-21T08:59:31.350Z,13.11
2019-04-21T09:02:06.308Z,13.11
2019-04-21T09:04:37.794Z,12.74
2019-04-21T09:07:15.635Z,13.22
2019-04-21T09:09:41.546Z,13.59
2019-04-21T09:12:10.667Z,13.70
2019-04-21T09:14:46.907Z,14.24
2019-04-21T09:17:13.249Z,13.69
2019-04-21T09:22:17.935Z,14.05
2019-04-21T09:24:53.576Z,14.10
2019-04-21T09:27:21.745Z,14.27
2019-04-21T09:29:43.637Z,14.64
2019-04-21T09:32:14.607Z,14.79
2019-04-21T09:34:43.830Z,15.10
2019-04-21T09:37:24.044Z,15.18
2019-04-21T09:39:48.408Z,15.10
2019-04-21T09:42:18.432Z,15.59
2019-04-21T09:44:51.873Z,15.54
2019-04-21T09:47:22.928Z,15.34
2019-04-21T09:49:50.447Z,15.55
2019-04-21T09:52:25.674Z,15.54
2019-04-21T09:55:03.688Z,15.95
2019-04-21T09:57:36.633Z,16.04
2019-04-21T10:00:05.036Z,17.13
2019-04-21T10:02:40.005Z,16.68
2019-04-21T10:04:59.788Z,16.67
2019-04-21T10:07:35.600Z,17.04
2019-04-21T10:10:01.562Z,17.23
2019-04-21T10:12:32.869Z,16.62
2019-04-21T10:15:04.292Z,17.00
2019-04-21T10:17:39.498Z,17.24
2019-04-21T10:20:11.631Z,17.64
2019-04-21T10:22:41.839Z,18.17
2019-04-21T10:25:12.585Z,17.79
2019-04-21T10:27:43.166Z,18.82
2019-04-21T10:30:14.228Z,17.31
2019-04-21T10:32:44.412Z,17.06
2019-04-21T10:35:15.259Z,17.81
2019-04-21T10:37:58.189Z,18.56
2019-04-21T10:40:19.763Z,18.62
2019-04-21T10:42:50.063Z,19.33
2019-04-21T10:45:21.161Z,17.50
2019-04-21T10:47:52.714Z,17.65
2019-04-21T10:50:22.992Z,17.68
2019-04-21T10:53:11.219Z,18.79
2019-04-21T10:55:57.868Z,19.92
2019-04-21T10:58:18.330Z,18.78
2019-04-21T11:00:51.562Z,19.55
2019-04-21T11:03:40.496Z,20.89
2019-04-21T11:06:12.749Z,20.07
2019-04-21T11:08:46.975Z,18.88
2019-04-21T11:11:16.124Z,19.22
2019-04-21T11:13:46.589Z,18.53
2019-04-21T11:16:17.267Z,18.63
2019-04-21T11:18:48.542Z,18.28
2019-04-21T11:21:18.829Z,18.44
2019-04-21T11:23:50.054Z,18.77
2019-04-21T11:26:20.286Z,18.51
2019-04-21T11:28:50.558Z,19.96
2019-04-21T11:31:20.989Z,19.74
2019-04-21T11:33:51.268Z,19.87
2019-04-21T11:36:21.687Z,20.81
2019-04-21T11:39:16.820Z,20.17
2019-04-21T11:41:33.996Z,20.41
2019-04-21T11:44:05.022Z,19.69
2019-04-21T11:46:36.285Z,20.59
2019-04-21T11:49:08.369Z,20.35
2019-04-21T11:51:38.485Z,20.54
2019-04-21T11:54:08.794Z,20.51
2019-04-21T11:56:39.034Z,19.93
2019-04-21T11:59:10.117Z,20.32
2019-04-21T12:01:41.329Z,20.24
2019-04-21T12:04:11.754Z,20.61
2019-04-21T12:06:46.677Z,20.38
2019-04-21T12:09:14.698Z,20.49
2019-04-21T12:11:45.329Z,20.56
2019-04-21T12:14:16.263Z,21.25
2019-04-21T12:16:48.740Z,19.36
2019-04-21T12:19:18.790Z,20.93
2019-04-21T12:21:58.868Z,20.42
2019-04-21T12:24:21.525Z,20.64
2019-04-21T12:26:51.824Z,20.00
2019-04-21T12:29:22.800Z,20.33
2019-04-21T12:32:01.381Z,19.95
2019-04-21T12:34:34.178Z,21.35
2019-04-21T12:37:04.647Z,21.79
2019-04-21T12:39:34.825Z,21.32
2019-04-21T12:42:04.916Z,21.54
2019-04-21T12:44:34.873Z,21.91
2019-04-21T12:47:05.843Z,20.90
2019-04-21T12:49:35.933Z,20.46
2019-04-21T12:52:06.037Z,20.27
2019-04-21T12:54:37.546Z,20.49
2019-04-21T12:57:08.010Z,20.52
2019-04-21T12:59:39.520Z,20.94
2019-04-21T13:02:09.763Z,20.84
2019-04-21T13:04:40.112Z,21.62
2019-04-21T13:07:11.310Z,20.80
2019-04-21T13:09:42.044Z,21.90
2019-04-21T13:12:13.123Z,21.68
2019-04-21T13:14:44.030Z,21.78
2019-04-21T13:17:15.161Z,22.05
2019-04-21T13:19:45.361Z,21.97
2019-04-21T13:22:16.127Z,22.42
2019-04-21T13:24:47.524Z,20.71
2019-04-21T13:27:17.824Z,20.55
2019-04-21T13:29:48.280Z,20.45
2019-04-21T13:32:18.626Z,20.52
2019-04-21T13:34:48.601Z,20.94
2019-04-21T13:37:19.474Z,20.13
2019-04-21T13:40:13.154Z,20.20
2019-04-21T13:42:36.592Z,21.29
2019-04-21T13:45:04.066Z,20.87
2019-04-21T13:47:32.939Z,21.46
2019-04-21T13:50:07.083Z,20.65
2019-04-21T13:52:38.443Z,20.54
2019-04-21T13:55:09.648Z,21.34
2019-04-21T13:57:40.928Z,20.26
2019-04-21T14:00:13.058Z,20.82
2019-04-21T14:02:44.761Z,20.96
2019-04-21T14:05:15.870Z,20.44
2019-04-21T14:07:46.254Z,20.45
2019-04-21T14:10:17.972Z,20.72
2019-04-21T14:12:48.907Z,20.50
2019-04-21T14:15:20.292Z,20.23
2019-04-21T14:17:50.941Z,19.87
2019-04-21T14:20:21.684Z,20.12
2019-04-21T14:22:52.005Z,20.72
2019-04-21T14:25:22.165Z,20.73
2019-04-21T14:27:54.077Z,20.88
2019-04-21T14:30:26.277Z,20.14
2019-04-21T14:32:56.416Z,20.57
2019-04-21T14:35:29.367Z,20.26
2019-04-21T14:38:00.506Z,20.35
2019-04-21T14:40:33.224Z,20.36
2019-04-21T14:43:02.707Z,19.83
2019-04-21T14:45:50.646Z,19.79
2019-04-21T14:48:39.188Z,19.81
2019-04-21T14:51:20.752Z,19.93
2019-04-21T14:53:56.363Z,19.52
2019-04-21T14:56:27.138Z,19.65
2019-04-21T14:58:59.487Z,20.46
2019-04-21T15:01:30.036Z,19.84
2019-04-21T15:04:01.555Z,20.11
2019-04-21T15:06:31.701Z,19.32
2019-04-21T15:09:02.924Z,19.84
2019-04-21T15:11:33.787Z,19.78
2019-04-21T15:14:04.139Z,19.87
2019-04-21T15:16:36.647Z,19.75
2019-04-21T15:19:06.827Z,19.87
2019-04-21T15:21:37.584Z,20.21
2019-04-21T15:24:08.711Z,20.01
2019-04-21T15:26:40.120Z,19.97
2019-04-21T15:29:11.297Z,20.09
2019-04-21T15:31:44.623Z,20.28
2019-04-21T15:34:13.214Z,20.31
2019-04-21T15:36:46.238Z,20.51
2019-04-21T15:39:16.373Z,19.64
2019-04-21T15:41:46.371Z,20.06
2019-04-21T15:44:18.584Z,20.06
2019-04-21T15:46:49.989Z,19.78
2019-04-21T15:49:20.797Z,20.26
2019-04-21T15:51:51.841Z,20.00
2019-04-21T15:54:22.653Z,20.05
2019-04-21T15:56:57.089Z,19.41
2019-04-21T15:59:32.615Z,19.52
2019-04-21T16:02:04.493Z,19.30
2019-04-21T16:04:34.683Z,19.63
2019-04-21T16:07:07.763Z,19.39
2019-04-21T16:09:37.760Z,19.33
2019-04-21T16:12:07.748Z,19.59
2019-04-21T16:14:38.624Z,19.17
2019-04-21T16:17:09.523Z,19.68
2019-04-21T16:19:39.653Z,19.69
2019-04-21T16:22:10.786Z,19.50
2019-04-21T16:24:42.037Z,19.60
2019-04-21T16:27:12.643Z,19.75
2019-04-21T16:29:43.879Z,19.28
2019-04-21T16:32:16.149Z,19.31
2019-04-21T16:34:53.680Z,19.28
2019-04-21T16:37:17.487Z,18.94
2019-04-21T16:39:47.543Z,19.17
2019-04-21T16:42:18.307Z,19.29
2019-04-21T16:44:49.167Z,19.07
2019-04-21T16:47:19.479Z,18.65
2019-04-21T16:49:49.854Z,18.94
2019-04-21T16:52:23.642Z,18.76
2019-04-21T16:55:12.843Z,18.71
2019-04-21T16:57:57.984Z,18.72
2019-04-21T17:02:52.388Z,18.28
2019-04-21T17:05:22.541Z,18.37
2019-04-21T17:07:53.678Z,18.22
2019-04-21T17:10:24.564Z,18.15
2019-04-21T17:12:56.056Z,17.87
2019-04-21T17:15:46.070Z,19.30
2019-04-21T17:16:31.939Z,18.18
2019-04-21T17:18:18.259Z,19.31
2019-04-21T17:20:41.834Z,18.87
2019-04-21T17:23:05.080Z,17.48
2019-04-21T17:25:35.304Z,17.13
2019-04-21T17:28:05.985Z,17.29
2019-04-21T17:30:36.731Z,17.04
2019-04-21T17:33:11.208Z,16.95
2019-04-21T17:35:38.703Z,16.70
2019-04-21T17:38:09.955Z,16.73
2019-04-21T17:40:40.180Z,16.58
2019-04-21T17:43:14.382Z,16.23
2019-04-21T17:45:42.211Z,15.91
2019-04-21T17:48:15.873Z,15.81
2019-04-21T17:50:49.571Z,15.67
2019-04-21T17:53:30.411Z,15.60
2019-04-21T17:56:20.601Z,15.65
2019-04-21T17:58:43.307Z,15.19
2019-04-21T18:01:26.377Z,15.16
2019-04-21T18:04:03.791Z,15.11
2019-04-21T18:06:31.182Z,14.91
2019-04-21T18:09:11.448Z,14.91
2019-04-21T18:11:37.202Z,14.96
2019-04-21T18:13:47.283Z,14.91
2019-04-21T18:16:26.834Z,15.18
2019-04-21T18:18:50.671Z,15.05
2019-04-21T18:21:22.796Z,15.01
2019-04-21T18:24:04.838Z,14.82
2019-04-21T18:26:38.024Z,14.83
2019-04-21T18:29:01.059Z,14.80
2019-04-21T18:31:33.960Z,14.72
2019-04-21T18:34:10.989Z,14.69
2019-04-21T18:36:43.189Z,14.76
2019-04-21T18:39:29.929Z,14.83
2019-04-21T18:42:10.903Z,14.87
2019-04-21T18:44:53.845Z,14.65
2019-04-21T18:47:27.611Z,14.38
2019-04-21T18:49:40.903Z,14.23
2019-04-21T18:52:22.399Z,13.99
2019-04-21T18:55:03.582Z,13.96
2019-04-21T18:57:27.380Z,14.07
2019-04-21T18:59:51.322Z,13.82
2019-04-21T19:02:22.467Z,13.68
2019-04-21T19:04:55.832Z,13.60
2019-04-21T19:07:49.766Z,13.41
2019-04-21T19:10:22.828Z,13.19
2019-04-21T19:13:20.440Z,13.23
2019-04-21T19:15:16.314Z,13.19
2019-04-21T19:18:29.597Z,13.18
2019-04-21T19:20:25.144Z,13.19
2019-04-21T19:22:52.214Z,13.16
2019-04-21T19:25:27.013Z,13.05
2019-04-21T19:27:59.127Z,12.40
2019-04-21T19:33:03.438Z,12.85
2019-04-21T19:35:19.410Z,12.69
2019-04-21T19:37:57.069Z,12.84
2019-04-21T19:40:32.992Z,12.65
2019-04-21T19:43:03.413Z,12.68
2019-04-21T19:45:38.147Z,12.65
2019-04-21T19:48:12.303Z,12.48
2019-04-21T19:50:50.327Z,12.41
2019-04-21T19:53:07.344Z,12.58
2019-04-21T19:55:32.351Z,12.50
2019-04-21T19:58:03.162Z,12.42
2019-04-21T20:00:34.663Z,12.42
2019-04-21T20:03:06.261Z,12.27
2019-04-21T20:05:46.702Z,12.18
2019-04-21T20:08:23.692Z,12.23
2019-04-21T20:11:00.214Z,12.12
2019-04-21T20:13:40.788Z,12.11
2019-04-21T20:16:03.882Z,11.94
2019-04-21T20:18:26.157Z,11.86
2019-04-21T20:20:48.243Z,11.82
2019-04-21T20:23:24.996Z,11.64
2019-04-21T20:25:55.868Z,11.36
2019-04-21T20:28:38.789Z,11.32
2019-04-21T20:31:16.789Z,11.47
2019-04-21T20:34:00.639Z,11.47
2019-04-21T20:36:25.162Z,11.41
2019-04-21T20:38:40.488Z,11.42
2019-04-21T20:43:54.693Z,11.28
2019-04-21T20:46:24.910Z,11.06
2019-04-21T20:48:56.099Z,10.98
2019-04-21T20:51:27.188Z,11.15
2019-04-21T20:53:53.686Z,11.18
2019-04-21T20:56:21.131Z,10.97
2019-04-21T20:58:59.960Z,10.95
2019-04-21T21:01:34.902Z,10.95
2019-04-21T21:04:02.082Z,10.95
2019-04-21T21:06:33.699Z,10.54
2019-04-21T21:09:07.366Z,10.77
2019-04-21T21:11:43.534Z,10.90
2019-04-21T21:14:13.122Z,10.79
2019-04-21T21:16:46.156Z,10.71
2019-04-21T21:21:46.052Z,10.65
2019-04-21T21:24:29.028Z,10.43
2019-04-21T21:26:56.207Z,10.63
2019-04-21T21:29:31.562Z,10.58
2019-04-21T21:32:06.774Z,10.49
2019-04-21T21:34:35.938Z,10.48
2019-04-21T21:37:09.024Z,10.57
2019-04-21T21:39:43.903Z,10.44
2019-04-21T21:41:51.026Z,10.36
2019-04-21T21:44:21.882Z,10.35
2019-04-21T21:47:00.505Z,10.16
2019-04-21T21:49:33.696Z,9.92
2019-04-21T21:52:06.074Z,9.78
2019-04-21T21:54:25.695Z,9.35
2019-04-21T21:56:56.415Z,9.20
2019-04-21T21:59:31.077Z,9.35
2019-04-21T22:01:59.794Z,9.50
2019-04-21T22:04:32.455Z,9.59
2019-04-21T22:07:07.306Z,9.35
2019-04-21T22:09:34.516Z,9.49
2019-04-21T22:12:07.211Z,9.43
2019-04-21T22:14:41.538Z,9.56
2019-04-21T22:17:24.731Z,9.35
2019-04-21T22:20:05.379Z,9.22
2019-04-21T22:22:29.637Z,9.13
2019-04-21T22:24:55.627Z,9.10
2019-04-21T22:27:16.935Z,9.29
2019-04-21T22:29:51.769Z,9.11
2019-04-21T22:32:25.406Z,8.85
2019-04-21T22:34:56.525Z,8.90
2019-04-21T22:37:39.199Z,8.85
2019-04-21T22:40:08.363Z,9.45
2019-04-21T22:42:33.199Z,9.51
2019-04-21T22:44:58.924Z,9.47
2019-04-21T22:47:33.783Z,9.36
2019-04-21T22:50:00.686Z,9.40
2019-04-21T22:52:32.332Z,9.27
2019-04-21T22:55:08.183Z,9.20
2019-04-21T22:57:44.341Z,9.15
2019-04-21T23:00:11.828Z,9.12
2019-04-21T23:02:42.757Z,9.06
2019-04-21T23:05:20.999Z,8.96
2019-04-21T23:07:51.209Z,8.99
2019-04-21T23:10:19.534Z,8.84
2019-04-21T23:12:50.142Z,8.75
2019-04-21T23:15:28.263Z,8.71
2019-04-21T23:18:15.840Z,8.61
2019-04-21T23:20:43.629Z,8.52
2019-04-21T23:23:17.947Z,8.57
2019-04-21T23:25:44.118Z,8.62
2019-04-21T23:28:14.821Z,8.59
2019-04-21T23:30:56.060Z,8.52
2019-04-21T23:33:08.720Z,8.53
2019-04-21T23:35:41.777Z,8.57
2019-04-21T23:38:12.035Z,8.51
2019-04-21T23:40:48.484Z,8.54
2019-04-21T23:43:18.887Z,8.44
2019-04-21T23:45:46.209Z,8.48
2019-04-21T23:48:28.829Z,8.38
2019-04-21T23:50:55.695Z,8.30
2019-04-21T23:53:19.717Z,8.25
2019-04-21T23:55:49.852Z,8.26
2019-04-21T23:58:25.527Z,8.28
